Time;durP1;ratioP1;P1;durP2;ratioP2;P2;SDS_P1;SDS_P2;PMS_P1;PMS_P2;Temp;Humidity;BMP_temperature;BMP_pressure;BME280_temperature;BME280_humidity;BME280_pressure;Samples;Min_cycle;Max_cycle;Signal;HPM_P1;HPM_P2
2021/11/20 00:00:42;;;;;;;6.92;3.20;;;;;;;11.33;84.36;99897.95;1724449;83;25541;-70
2021/11/20 00:03:12;;;;;;;4.87;2.90;;;;;;;11.34;84.12;99885.20;1724474;83;25460;-72
2021/11/20 00:05:44;;;;;;;6.20;2.77;;;;;;;11.35;84.13;99899.77;1724441;81;25641;-72
2021/11/20 00:08:11;;;;;;;6.42;2.62;;;;;;;11.35;83.91;99895.70;1724513;83;27340;-71
2021/11/20 00:10:41;;;;;;;6.25;3.05;;;;;;;11.34;84.06;99906.32;1724602;82;25612;-72
2021/11/20 00:13:11;;;;;;;6.28;2.80;;;;;;;11.36;83.56;99915.48;1724401;83;25397;-72
2021/11/20 00:15:41;;;;;;;;;;;;;;;11.36;84.06;99907.36;1730924;81;26642;-72
2021/11/20 00:18:09;;;;;;;5.03;2.87;;;;;;;11.36;83.75;99918.19;1739880;82;25551;-71
2021/11/20 00:20:45;;;;;;;5.58;2.90;;;;;;;11.34;83.32;99902.80;1739830;82;27319;-69
2021/11/20 00:23:08;;;;;;;7.58;3.17;;;;;;;11.33;82.13;99903.36;1739025;82;25704;-71
2021/11/20 00:25:47;;;;;;;5.58;2.87;;;;;;;11.34;83.14;99915.80;1739842;82;25570;-70
2021/11/20 00:28:09;;;;;;;9.33;3.12;;;;;;;11.34;83.34;99927.16;1738863;82;25454;-73
2021/11/20 00:30:52;;;;;;;10.40;3.00;;;;;;;11.33;83.45;99925.02;1739843;82;25402;-71
2021/11/20 00:33:11;;;;;;;5.12;2.60;;;;;;;11.33;83.62;99920.18;1738372;82;27404;-71
2021/11/20 00:35:42;;;;;;;6.33;3.02;;;;;;;11.32;82.67;99919.93;1739731;82;25608;-71
2021/11/20 00:38:11;;;;;;;3.98;2.77;;;;;;;11.31;82.94;99925.91;1739857;82;25480;-71
2021/11/20 00:40:43;;;;;;;7.97;2.77;;;;;;;11.30;82.91;99924.31;1739859;82;26142;-71
2021/11/20 00:43:10;;;;;;;6.62;2.95;;;;;;;11.30;82.88;99934.36;1739202;82;25553;-71
2021/11/20 00:45:37;;;;;;;8.58;2.60;;;;;;;11.29;82.29;99918.68;1739818;82;28090;-71
2021/11/20 00:48:06;;;;;;;9.03;3.22;;;;;;;11.28;83.06;99924.41;1739673;82;25606;-71
2021/11/20 00:50:36;;;;;;;5.60;3.17;;;;;;;11.27;82.66;99930.39;1739748;82;25397;-71
2021/11/20 00:53:02;;;;;;;7.85;2.77;;;;;;;11.27;82.86;99916.86;1739761;82;25973;-71
2021/11/20 00:55:30;;;;;;;9.05;3.42;;;;;;;11.27;82.62;99913.33;1739739;82;25460;-71
2021/11/20 00:57:59;;;;;;;5.97;2.52;;;;;;;11.26;81.88;99918.53;1739759;82;27298;-70
2021/11/20 01:00:31;;;;;;;9.68;3.77;;;;;;;11.25;82.34;99944.78;1718784;82;25487;-70
2021/11/20 01:02:59;;;;;;;9.08;3.25;;;;;;;11.26;82.36;99939.63;1739846;82;25638;-71
2021/11/20 01:05:26;;;;;;;8.05;2.72;;;;;;;11.26;82.04;99929.36;1718790;82;25924;-71
2021/11/20 01:07:53;;;;;;;4.12;2.90;;;;;;;11.25;82.05;99946.14;1718675;82;25490;-71
2021/11/20 01:10:25;;;;;;;7.10;2.72;;;;;;;11.26;81.97;99934.78;1739757;82;27325;-71
2021/11/20 01:12:52;;;;;;;5.17;2.35;;;;;;;11.25;81.52;99914.22;1739704;82;25617;-71
2021/11/20 01:15:24;;;;;;;6.65;2.45;;;;;;;11.25;81.37;99927.76;1739761;82;25523;-72
2021/11/20 01:17:51;;;;;;;9.18;3.22;;;;;;;11.25;81.57;99921.77;1739675;82;26467;-71
2021/11/20 01:20:20;;;;;;;5.97;3.30;;;;;;;11.25;81.09;99925.84;1739851;82;25564;-71
2021/11/20 01:22:47;;;;;;;8.35;2.55;;;;;;;11.27;81.42;99939.05;1739774;82;27887;-71
2021/11/20 01:25:15;;;;;;;6.65;2.62;;;;;;;11.26;81.06;99946.96;1739695;82;25581;-71
2021/11/20 01:27:42;;;;;;;5.28;2.58;;;;;;;11.25;81.27;99935.31;1739792;82;25455;-71
2021/11/20 01:30:11;;;;;;;6.10;2.33;;;;;;;11.25;81.10;99938.02;1739756;82;26053;-71
2021/11/20 01:32:38;;;;;;;4.87;2.20;;;;;;;11.26;80.91;99923.95;1690380;84;25699;-71
2021/11/20 01:35:07;;;;;;;6.10;2.42;;;;;;;11.25;80.69;99938.59;1648578;87;27337;-71
2021/11/20 01:37:37;;;;;;;4.85;2.58;;;;;;;11.25;80.73;99922.34;1630865;88;25731;-71
2021/11/20 01:40:12;;;;;;;6.50;2.40;;;;;;;11.25;80.59;99923.70;1630740;88;32524;-71
2021/11/20 01:42:39;;;;;;;5.90;2.37;;;;;;;11.24;80.48;99918.85;1630751;88;25944;-71
2021/11/20 01:45:23;;;;;;;6.45;2.42;;;;;;;11.24;80.67;99916.14;1643775;87;25579;-71
2021/11/20 01:48:04;;;;;;;4.92;2.25;;;;;;;11.24;80.83;99936.45;1643671;87;27324;-71
2021/11/20 01:50:36;;;;;;;7.85;2.35;;;;;;;11.24;80.71;99941.05;1644331;87;25689;-71
2021/11/20 01:53:22;;;;;;;4.65;2.10;;;;;;;11.23;80.28;99921.88;1644757;85;25587;-71
2021/11/20 01:56:12;;;;;;;6.12;2.20;;;;;;;11.23;80.28;99921.88;1644055;87;25934;-71
2021/11/20 01:59:07;;;;;;;4.95;2.00;;;;;;;11.24;80.19;99925.62;1643876;86;25677;-71
2021/11/20 02:01:43;;;;;;;5.75;2.00;;;;;;;11.23;80.21;99928.08;1643863;87;27333;-71
2021/11/20 02:04:28;;;;;;;8.03;2.45;;;;;;;11.23;80.31;99931.36;1667632;85;25424;-70
2021/11/20 02:06:59;;;;;;;6.15;2.05;;;;;;;11.21;80.05;99925.69;1677274;84;25610;-69
2021/11/20 02:10:05;;;;;;;4.47;1.92;;;;;;;11.20;80.38;99928.17;1703843;84;25914;-71
2021/11/20 02:12:39;;;;;;;8.85;2.27;;;;;;;11.20;80.13;99931.42;1704318;84;25429;-71
2021/11/20 02:15:11;;;;;;;5.47;2.12;;;;;;;11.19;80.52;99929.28;1704317;84;27318;-70
2021/11/20 02:17:43;;;;;;;8.55;2.80;;;;;;;11.18;80.12;99929.03;1704189;83;25553;-70
2021/11/20 02:20:30;;;;;;;9.18;2.22;;;;;;;11.19;80.71;99933.91;1702157;84;25689;-70
2021/11/20 02:22:56;;;;;;;5.53;1.82;;;;;;;11.17;80.45;99930.17;1704176;84;28080;-70
2021/11/20 02:25:22;;;;;;;8.25;2.27;;;;;;;11.17;80.70;99940.21;1672326;84;32440;-71
2021/11/20 02:27:53;;;;;;;6.72;2.27;;;;;;;11.16;80.64;99942.10;1704450;83;27948;-70
2021/11/20 02:30:28;;;;;;;7.00;2.25;;;;;;;11.16;80.30;99944.81;1703987;83;25542;-70
2021/11/20 02:33:14;;;;;;;5.45;2.15;;;;;;;11.16;80.69;99929.92;1704215;84;25578;-72
2021/11/20 02:35:52;;;;;;;10.82;2.50;;;;;;;11.16;80.41;99921.02;1702943;84;26621;-72
2021/11/20 02:38:26;;;;;;;10.28;3.00;;;;;;;11.15;80.69;99944.59;1704459;84;25619;-70
2021/11/20 02:40:55;;;;;;;3.55;2.10;;;;;;;11.14;80.69;99942.98;1704170;84;27300;-73
2021/11/20 02:43:23;;;;;;;8.45;2.50;;;;;;;11.13;80.74;99938.67;1697528;84;26844;-71
2021/11/20 02:45:54;;;;;;;7.62;2.70;;;;;;;11.12;80.69;99941.16;1686579;85;25436;-70
2021/11/20 02:48:21;;;;;;;7.30;2.35;;;;;;;11.11;80.73;99946.33;1739676;82;25935;-70
2021/11/20 02:50:54;;;;;;;4.97;2.35;;;;;;;11.11;80.60;99936.07;1739782;82;25629;-69
2021/11/20 02:53:29;;;;;;;7.08;2.60;;;;;;;11.11;80.90;99946.89;1718596;82;27217;-70
2021/11/20 02:55:56;;;;;;;5.05;2.80;;;;;;;11.09;80.78;99935.59;1738485;82;25389;-70
2021/11/20 02:58:25;;;;;;;5.95;2.15;;;;;;;11.08;80.76;99946.97;1739699;82;25612;-70
2021/11/20 03:01:03;;;;;;;7.42;2.42;;;;;;;11.07;80.64;99957.57;1739779;82;25961;-70
2021/11/20 03:03:30;;;;;;;6.55;2.10;;;;;;;11.05;80.42;99944.11;1739737;82;25440;-72
2021/11/20 03:05:56;;;;;;;7.03;2.92;;;;;;;11.05;80.72;99955.75;1718643;82;27331;-72
2021/11/20 03:08:23;;;;;;;4.58;2.02;;;;;;;11.03;80.72;99935.77;1739611;82;25626;-72
2021/11/20 03:10:50;;;;;;;8.30;2.95;;;;;;;11.02;80.68;99936.88;1739704;82;25630;-72
2021/11/20 03:13:18;;;;;;;4.53;1.90;;;;;;;11.01;80.63;99958.27;1739614;82;25987;-72
2021/11/20 03:15:45;;;;;;;6.55;2.22;;;;;;;10.99;80.51;99963.78;1739738;82;25399;-72
2021/11/20 03:18:12;;;;;;;8.70;2.67;;;;;;;10.98;80.66;99952.70;1744227;82;27432;-72
2021/11/20 03:20:41;;;;;;;5.92;1.95;;;;;;;10.97;80.70;99951.13;1717433;82;25419;-72
2021/11/20 03:23:19;;;;;;;7.17;2.92;;;;;;;10.95;80.69;99947.95;1744852;81;25461;-71
2021/11/20 03:25:46;;;;;;;6.97;2.15;;;;;;;10.93;80.42;99944.75;1744950;82;25927;-72
2021/11/20 03:28:12;;;;;;;7.75;1.90;;;;;;;10.91;80.32;99957.81;1744877;81;25599;-72
2021/11/20 03:30:41;;;;;;;7.00;2.15;;;;;;;10.87;80.50;99967.12;1744719;82;27320;-72
2021/11/20 03:33:08;;;;;;;10.28;2.42;;;;;;;10.86;80.24;99974.20;1744626;82;25637;-70
2021/11/20 03:35:35;;;;;;;6.03;1.80;;;;;;;10.82;80.23;99973.48;1744667;82;25593;-70
2021/11/20 03:38:03;;;;;;;15.90;2.83;;;;;;;10.81;80.33;99986.80;1744646;82;25982;-71
2021/11/20 03:40:30;;;;;;;7.25;2.10;;;;;;;10.79;80.19;99974.68;1725759;82;25656;-71
2021/11/20 03:42:57;;;;;;;6.75;1.80;;;;;;;10.77;80.24;99993.14;1744690;82;27322;-71
2021/11/20 03:45:28;;;;;;;6.67;1.80;;;;;;;10.73;79.81;100000.31;1744591;82;25628;-71
2021/11/20 03:47:57;;;;;;;9.63;1.77;;;;;;;10.71;80.10;100003.88;1744730;82;25451;-70
2021/11/20 03:50:24;;;;;;;7.60;1.80;;;;;;;10.68;79.93;100000.47;1744910;82;25981;-70
2021/11/20 03:52:53;;;;;;;7.62;2.45;;;;;;;10.61;79.89;99984.70;1744700;82;25601;-72
2021/11/20 03:55:28;;;;;;;6.90;3.47;;;;;;;10.59;79.98;100012.60;1744602;82;27333;-70
2021/11/20 03:57:55;;;;;;;4.42;1.70;;;;;;;10.55;79.97;100013.79;1744790;82;25381;-70
2021/11/20 04:00:27;;;;;;;11.38;1.62;;;;;;;10.51;79.90;100012.05;1744719;82;25565;-70
2021/11/20 04:02:53;;;;;;;5.42;1.77;;;;;;;10.47;79.73;100014.56;1687958;84;26482;-70
2021/11/20 04:05:22;;;;;;;10.38;1.67;;;;;;;10.43;79.72;100019.02;1646905;87;25713;-70
2021/11/20 04:07:50;;;;;;;8.98;2.20;;;;;;;10.38;79.87;100028.62;1626116;88;28081;-70
2021/11/20 04:10:19;;;;;;;6.30;1.50;;;;;;;10.34;79.83;100038.48;1626050;88;25711;-70
2021/11/20 04:12:46;;;;;;;;;;;;;;;10.30;79.93;100035.59;1628614;87;25545;-70
2021/11/20 04:15:17;;;;;;;8.10;1.92;;;;;;;10.26;79.85;100031.33;1654234;85;26026;-70
2021/11/20 04:17:44;;;;;;;11.80;2.20;;;;;;;10.21;79.94;100027.98;1655437;86;25676;-73
2021/11/20 04:20:16;;;;;;;9.43;1.85;;;;;;;10.16;79.84;100018.66;1649078;87;27444;-70
2021/11/20 04:22:42;;;;;;;8.05;1.52;;;;;;;10.14;79.95;100024.94;1648905;87;25447;-70
2021/11/20 04:25:11;;;;;;;5.87;1.60;;;;;;;10.10;79.77;100023.42;1608793;89;25492;-70
2021/11/20 04:27:38;;;;;;;8.63;1.80;;;;;;;10.06;79.52;100030.55;1609010;89;34712;-70
2021/11/20 04:30:09;;;;;;;8.70;2.22;;;;;;;10.04;79.86;100040.87;1608963;89;25692;-70
2021/11/20 04:32:36;;;;;;;6.25;1.65;;;;;;;10.00;79.64;100032.59;1612160;87;28112;-70
2021/11/20 04:35:06;;;;;;;7.95;2.00;;;;;;;9.97;79.81;100039.97;1607054;89;25639;-70
2021/11/20 04:37:33;;;;;;;6.33;1.72;;;;;;;9.95;79.72;100038.70;1607155;89;25489;-71
2021/11/20 04:40:00;;;;;;;6.85;1.87;;;;;;;9.91;79.83;100040.66;1607103;89;26585;-70
2021/11/20 04:42:27;;;;;;;7.92;1.77;;;;;;;9.87;79.79;100053.18;1607169;89;25643;-70
2021/11/20 04:44:54;;;;;;;5.33;1.82;;;;;;;9.86;79.77;100061.62;1607169;89;27440;-70
2021/11/20 04:47:21;;;;;;;7.67;1.75;;;;;;;9.84;79.82;100059.22;1607124;89;25549;-71
2021/11/20 04:49:47;;;;;;;9.35;1.98;;;;;;;9.82;79.78;100066.03;1607169;89;25700;-70
2021/11/20 04:52:16;;;;;;;9.08;2.27;;;;;;;9.80;79.90;100047.98;1607175;89;25934;-70
2021/11/20 04:54:43;;;;;;;11.25;2.40;;;;;;;9.76;79.74;100052.42;1607124;89;25606;-70
2021/11/20 04:57:10;;;;;;;8.88;2.30;;;;;;;9.73;79.83;100051.13;1688320;83;27913;-70
2021/11/20 04:59:37;;;;;;;8.20;2.27;;;;;;;9.70;79.88;100053.09;1699691;83;25602;-70
2021/11/20 05:02:05;;;;;;;10.03;2.30;;;;;;;9.67;79.79;100056.40;1697381;83;25575;-70
2021/11/20 05:04:31;;;;;;;8.68;2.40;;;;;;;9.65;79.87;100064.02;1701567;84;25935;-70
2021/11/20 05:06:58;;;;;;;11.05;2.35;;;;;;;9.61;79.84;100066.54;1728463;82;25320;-70
2021/11/20 05:09:25;;;;;;;9.98;2.00;;;;;;;9.58;79.84;100067.15;1732575;82;27878;-70
2021/11/20 05:11:52;;;;;;;8.45;2.87;;;;;;;9.56;79.84;100084.22;1700733;83;25922;-70
2021/11/20 05:14:19;;;;;;;7.58;2.08;;;;;;;9.55;79.88;100077.20;1699789;83;25676;-71
2021/11/20 05:16:45;;;;;;;17.90;2.37;;;;;;;9.53;79.85;100076.19;1702988;83;25926;-71
2021/11/20 05:19:12;;;;;;;8.90;1.92;;;;;;;9.52;79.90;100081.89;1699868;83;25568;-70
2021/11/20 05:21:38;;;;;;;9.08;2.00;;;;;;;9.51;79.98;100091.09;1698268;84;27971;-70
2021/11/20 05:24:05;;;;;;;9.03;2.95;;;;;;;9.49;79.96;100101.41;1699369;83;25455;-70
2021/11/20 05:26:32;;;;;;;9.68;3.15;;;;;;;9.48;80.02;100114.64;1701626;84;25472;-70
2021/11/20 05:31:25;;;;;;;9.45;1.98;;;;;;;9.41;80.00;100115.06;1697510;83;25412;-70
2021/11/20 05:33:52;;;;;;;8.63;1.92;;;;;;;9.39;80.10;100110.53;1698046;83;27412;-70
2021/11/20 05:36:25;;;;;;;19.48;4.05;;;;;;;9.37;80.06;100111.95;1702285;83;25672;-70
2021/11/20 05:38:49;;;;;;;11.35;2.05;;;;;;;9.37;80.13;100116.79;1702222;82;25559;-70
2021/11/20 05:41:15;;;;;;;9.35;2.45;;;;;;;9.36;80.19;100119.23;1696800;84;26570;-70
2021/11/20 05:43:43;;;;;;;9.60;1.82;;;;;;;9.37;80.19;100117.34;1697000;84;25587;-70
2021/11/20 05:46:14;;;;;;;18.70;7.75;;;;;;;9.34;80.19;100124.93;1698558;83;27365;-70
2021/11/20 05:48:41;;;;;;;6.85;2.17;;;;;;;9.32;80.16;100127.70;1701519;84;25588;-71
2021/11/20 05:51:08;;;;;;;7.80;2.40;;;;;;;9.31;80.13;100150.38;1701591;84;25593;-71
2021/11/20 05:53:36;;;;;;;9.60;2.30;;;;;;;9.29;79.97;100139.89;1701536;83;25940;-71
2021/11/20 05:56:04;;;;;;;13.00;1.90;;;;;;;9.29;80.25;100152.59;1701667;84;25580;-70
2021/11/20 05:58:31;;;;;;;10.32;2.17;;;;;;;9.27;80.25;100152.89;1701572;84;27922;-71
2021/11/20 06:01:03;;;;;;;10.53;2.17;;;;;;;9.25;80.20;100152.97;1701524;84;25418;-71
2021/11/20 06:03:32;;;;;;;12.75;2.10;;;;;;;9.24;80.25;100145.95;1730571;82;25602;-71
2021/11/20 06:05:59;;;;;;;7.65;1.90;;;;;;;9.22;80.17;100152.22;1713431;82;25825;-71
2021/11/20 06:08:26;;;;;;;12.25;2.30;;;;;;;9.20;80.07;100149.82;1698143;83;25419;-71
2021/11/20 06:10:56;;;;;;;12.60;2.83;;;;;;;9.18;80.23;100177.66;1729432;82;27310;-71
2021/11/20 06:13:24;;;;;;;13.75;2.50;;;;;;;9.15;80.33;100185.80;1749701;81;25735;-72
2021/11/20 06:15:50;;;;;;;9.95;2.42;;;;;;;9.15;80.27;100190.41;1749678;82;25385;-71
2021/11/20 06:18:17;;;;;;;10.03;2.02;;;;;;;9.13;80.33;100186.66;1729712;81;25938;-70
2021/11/20 06:20:46;;;;;;;10.93;2.40;;;;;;;9.13;80.39;100193.41;1711441;82;25455;-71
2021/11/20 06:23:13;;;;;;;10.10;2.08;;;;;;;9.12;80.47;100191.00;1688246;83;27329;-71
2021/11/20 06:25:40;;;;;;;12.45;2.40;;;;;;;9.10;80.44;100189.95;1713538;83;25621;-71
2021/11/20 06:28:09;;;;;;;10.18;2.67;;;;;;;9.10;80.48;100191.30;1713491;83;25437;-72
2021/11/20 06:30:36;;;;;;;11.75;2.80;;;;;;;9.10;80.49;100200.74;1713451;83;26597;-71
2021/11/20 06:33:04;;;;;;;9.10;2.77;;;;;;;9.10;80.51;100195.91;1717217;82;25444;-71
2021/11/20 06:35:36;;;;;;;16.52;2.80;;;;;;;9.10;80.46;100199.95;1713609;83;27923;-71
2021/11/20 06:38:04;;;;;;;11.05;2.20;;;;;;;9.09;80.51;100206.44;1713630;83;25614;-71
2021/11/20 06:40:36;;;;;;;12.18;2.30;;;;;;;9.11;80.48;100215.05;1713482;83;25449;-71
2021/11/20 06:43:05;;;;;;;10.98;2.50;;;;;;;9.12;80.58;100212.59;1713549;83;26498;-71
2021/11/20 06:45:36;;;;;;;11.70;2.58;;;;;;;9.15;80.56;100217.39;1713668;83;25576;-71
2021/11/20 06:48:05;;;;;;;13.48;2.47;;;;;;;9.18;80.47;100228.94;1713683;82;27907;-70
2021/11/20 06:50:34;;;;;;;22.40;3.17;;;;;;;9.20;80.40;100241.58;1653425;85;25706;-71
2021/11/20 06:53:06;;;;;;;12.15;2.25;;;;;;;9.23;80.43;100238.81;1648269;87;25435;-70
2021/11/20 06:55:35;;;;;;;12.58;3.37;;;;;;;9.24;80.36;100248.52;1648056;87;25832;-68
2021/11/20 07:00:49;;;;;;;13.95;2.40;;;;;;;9.25;80.20;100257.66;1648139;87;28121;-71
2021/11/20 07:03:33;;;;;;;10.60;2.37;;;;;;;9.27;80.18;100264.91;1647527;87;25574;-71
2021/11/20 07:06:18;;;;;;;17.37;2.58;;;;;;;9.30;80.06;100269.71;1648094;87;25548;-71
2021/11/20 07:08:47;;;;;;;15.05;3.25;;;;;;;9.34;79.94;100257.76;1647648;87;26009;-71
2021/11/20 07:11:16;;;;;;;15.93;3.08;;;;;;;9.38;79.75;100259.30;1648256;87;25494;-70
2021/11/20 07:13:43;;;;;;;14.78;2.90;;;;;;;9.42;79.80;100269.77;1648371;87;28026;-72
2021/11/20 07:16:13;;;;;;;8.73;2.72;;;;;;;9.47;79.62;100271.01;1662854;86;25492;-71
2021/11/20 07:18:42;;;;;;;11.65;4.00;;;;;;;9.51;79.77;100274.13;1713867;83;25507;-72
2021/11/20 07:21:10;;;;;;;14.75;2.42;;;;;;;9.56;79.78;100265.13;1694428;83;25811;-70
2021/11/20 07:23:37;;;;;;;18.45;3.85;;;;;;;9.62;79.68;100265.28;1724173;83;25406;-69
2021/11/20 07:26:06;;;;;;;14.60;2.90;;;;;;;9.71;79.66;100266.71;1744617;80;27324;-70
2021/11/20 07:28:33;;;;;;;14.53;2.90;;;;;;;9.82;79.28;100255.13;1724318;83;25561;-71
2021/11/20 07:31:01;;;;;;;11.18;2.85;;;;;;;9.97;79.29;100261.53;1724738;82;25624;-71
2021/11/20 07:33:27;;;;;;;13.50;3.05;;;;;;;10.15;79.15;100246.79;1724351;83;26005;-71
2021/11/20 07:35:59;;;;;;;9.68;2.70;;;;;;;10.36;78.88;100249.84;1724288;83;25570;-72
2021/11/20 07:38:34;;;;;;;11.22;3.42;;;;;;;10.56;78.72;100258.80;1724254;83;27919;-71
2021/11/20 07:41:01;;;;;;;14.45;2.98;;;;;;;10.87;79.12;100252.59;1757552;80;25396;-70
2021/11/20 07:43:27;;;;;;;14.47;3.10;;;;;;;11.23;78.42;100260.30;1765857;80;25401;-70
2021/11/20 07:45:54;;;;;;;11.15;2.90;;;;;;;11.51;78.35;100265.70;1769773;80;26691;-70
2021/11/20 07:48:25;;;;;;;11.88;2.95;;;;;;;11.90;76.97;100259.12;1772413;80;25429;-71
2021/11/20 07:50:53;;;;;;;16.05;3.40;;;;;;;12.13;75.94;100269.29;1780774;80;27422;-70
2021/11/20 07:53:24;;;;;;;11.35;2.72;;;;;;;12.44;75.80;100278.58;1784839;80;25705;-71
2021/11/20 07:55:51;;;;;;;9.30;2.72;;;;;;;12.73;74.33;100280.37;1784902;79;25573;-70
2021/11/20 07:58:19;;;;;;;12.13;3.02;;;;;;;12.98;73.40;100288.98;1784909;80;25916;-70
2021/11/20 08:00:46;;;;;;;10.75;2.83;;;;;;;13.24;73.76;100277.22;1773181;80;25723;-69
2021/11/20 08:03:14;;;;;;;9.28;2.70;;;;;;;13.56;72.62;100273.64;1754302;81;27361;-71
2021/11/20 08:05:41;;;;;;;14.03;2.45;;;;;;;13.76;70.84;100276.16;1697229;83;25456;-71
2021/11/20 08:08:08;;;;;;;12.43;4.42;;;;;;;13.90;69.83;100275.32;1703511;83;25665;-70
2021/11/20 08:10:37;;;;;;;15.50;4.72;;;;;;;14.08;69.60;100274.64;1764117;80;25923;-70
2021/11/20 08:13:06;;;;;;;10.10;2.35;;;;;;;14.30;69.54;100287.09;1769535;80;25815;-69
2021/11/20 08:15:34;;;;;;;13.48;3.27;;;;;;;14.45;67.30;100283.50;1766913;80;27302;-69
2021/11/20 08:18:00;;;;;;;10.35;2.45;;;;;;;14.59;68.07;100288.67;1775767;79;25752;-70
2021/11/20 08:20:33;;;;;;;10.08;3.12;;;;;;;14.88;68.99;100293.16;1788760;79;25634;-70
2021/11/20 08:23:06;;;;;;;11.73;2.52;;;;;;;15.23;67.16;100295.48;1789902;79;26082;-71
2021/11/20 08:25:38;;;;;;;11.40;2.65;;;;;;;15.49;68.18;100312.29;1802119;79;25613;-71
2021/11/20 08:28:06;;;;;;;12.93;2.85;;;;;;;15.89;66.84;100313.52;1802088;79;28033;-70
2021/11/20 08:30:34;;;;;;;9.60;2.83;;;;;;;16.14;65.66;100324.34;1801849;79;25540;-70
2021/11/20 08:33:02;;;;;;;9.05;2.72;;;;;;;16.16;63.42;100329.70;1802153;79;25576;-71
2021/11/20 08:35:30;;;;;;;13.08;3.67;;;;;;;16.11;61.36;100325.84;1801972;79;26516;-67
2021/11/20 08:37:58;;;;;;;16.50;5.58;;;;;;;16.07;61.60;100326.30;1801984;79;25700;-65
2021/11/20 08:40:30;;;;;;;13.70;4.40;;;;;;;16.11;61.84;100326.43;1801992;79;27391;-63
2021/11/20 08:43:00;;;;;;;16.25;3.10;;;;;;;16.37;61.44;100341.79;1802002;79;25646;-70
2021/11/20 08:45:31;;;;;;;10.28;3.00;;;;;;;16.35;61.29;100341.34;1802103;79;25599;-75
2021/11/20 08:47:58;;;;;;;15.98;3.05;;;;;;;16.21;61.78;100343.10;1780555;79;25988;-76
2021/11/20 08:50:33;;;;;;;15.43;2.95;;;;;;;16.07;62.61;100356.31;1802027;79;25630;-71
2021/11/20 08:53:00;;;;;;;11.48;3.02;;;;;;;15.99;61.83;100346.34;1800832;79;27335;-69
2021/11/20 08:55:28;;;;;;;9.65;2.42;;;;;;;15.72;61.11;100347.26;1801898;79;25546;-73
2021/11/20 08:57:55;;;;;;;13.75;2.75;;;;;;;15.66;63.73;100349.42;1802038;79;25710;-75
2021/11/20 09:00:30;;;;;;;12.90;2.92;;;;;;;15.85;62.98;100350.78;1801916;79;25925;-76
2021/11/20 09:03:02;;;;;;;10.82;2.77;;;;;;;16.02;62.86;100346.45;1802093;79;25392;-75
2021/11/20 09:05:37;;;;;;;12.23;3.05;;;;;;;16.17;62.58;100350.95;1802078;79;28013;-73
2021/11/20 09:08:12;;;;;;;11.97;2.67;;;;;;;16.29;61.49;100350.13;1801119;79;25595;-73
2021/11/20 09:10:55;;;;;;;13.72;2.35;;;;;;;16.30;60.77;100353.88;1801047;79;25675;-73
2021/11/20 09:13:30;;;;;;;9.98;2.62;;;;;;;16.10;60.56;100341.20;1801274;79;26882;-73
2021/11/20 09:16:05;;;;;;;14.53;2.90;;;;;;;16.19;60.67;100345.39;1802016;79;25202;-74
2021/11/20 09:18:35;;;;;;;17.57;6.40;;;;;;;16.36;60.37;100344.86;1769607;79;27208;-73
2021/11/20 09:21:06;;;;;;;12.25;4.30;;;;;;;16.31;60.88;100335.00;1763595;80;25624;-72
2021/11/20 09:23:32;;;;;;;16.85;3.10;;;;;;;16.48;60.18;100347.57;1752096;80;25534;-73
2021/11/20 09:25:59;;;;;;;13.30;3.95;;;;;;;16.44;60.30;100346.08;1734283;81;26670;-70
2021/11/20 09:28:27;;;;;;;12.35;2.52;;;;;;;16.61;61.32;100342.83;1739164;81;25734;-71
2021/11/20 09:30:58;;;;;;;12.37;3.33;;;;;;;17.13;61.50;100344.63;1723976;81;27363;-71
2021/11/20 09:33:26;;;;;;;14.20;3.08;;;;;;;17.27;58.89;100337.93;1727083;81;25706;-71
2021/11/20 09:35:54;;;;;;;14.13;3.77;;;;;;;17.08;57.79;100331.81;1729319;82;25656;-71
2021/11/20 09:38:24;;;;;;;16.67;3.65;;;;;;;17.08;57.67;100329.86;1732914;82;25917;-71
2021/11/20 09:41:01;;;;;;;12.43;2.87;;;;;;;17.03;56.79;100323.29;1732300;82;25659;-71
2021/11/20 09:43:32;;;;;;;14.55;3.37;;;;;;;16.97;57.94;100314.57;1732350;82;27242;-71
2021/11/20 09:46:19;;;;;;;8.25;2.50;;;;;;;17.29;58.59;100318.65;1731607;82;25606;-70
2021/11/20 09:48:54;;;;;;;10.48;3.75;;;;;;;17.34;58.67;100315.64;1712817;82;25637;-70
2021/11/20 09:51:40;;;;;;;11.93;3.00;;;;;;;17.44;58.08;100314.33;1730930;82;25938;-70
2021/11/20 09:54:22;;;;;;;9.63;3.15;;;;;;;17.35;57.05;100311.78;1730005;81;25852;-69
2021/11/20 09:56:56;;;;;;;10.63;3.15;;;;;;;17.38;56.39;100307.53;1714691;83;27288;-69
2021/11/20 09:59:50;;;;;;;13.08;3.02;;;;;;;17.31;56.82;100306.78;1707583;83;25802;-70
2021/11/20 10:02:37;;;;;;;11.75;3.22;;;;;;;17.17;56.63;100306.45;1699560;83;25479;-69
2021/11/20 10:05:15;;;;;;;8.60;2.65;;;;;;;17.20;55.88;100299.47;1695213;83;26482;-70
2021/11/20 10:07:46;;;;;;;12.95;3.05;;;;;;;17.05;55.48;100303.23;1703232;83;25491;-70
2021/11/20 10:10:21;;;;;;;10.30;3.05;;;;;;;16.67;54.92;100300.48;1702669;82;27333;-69
2021/11/20 10:13:07;;;;;;;12.60;2.92;;;;;;;16.18;54.46;100306.95;1709513;83;25463;-68
2021/11/20 10:15:41;;;;;;;12.00;3.08;;;;;;;15.76;55.00;100303.19;1663741;85;25659;-68
2021/11/20 10:18:22;;;;;;;12.25;2.80;;;;;;;15.89;57.68;100301.24;1645896;86;26499;-68
2021/11/20 10:20:57;;;;;;;8.33;2.65;;;;;;;16.32;57.00;100312.59;1643901;86;25622;-68
2021/11/20 10:23:50;;;;;;;9.88;2.83;;;;;;;16.44;55.22;100313.32;1686364;85;27330;-69
2021/11/20 10:26:44;;;;;;;8.25;2.80;;;;;;;15.97;54.67;100306.32;1696944;84;27159;-69
2021/11/20 10:30:07;;;;;;;8.40;2.60;;;;;;;15.38;55.12;100308.42;1701635;81;25612;-68
2021/11/20 10:32:45;;;;;;;14.07;3.33;;;;;;;14.89;56.06;100300.20;1731987;82;25922;-68
2021/11/20 10:35:38;;;;;;;18.25;7.78;;;;;;;14.88;56.73;100302.14;1731736;82;25409;-67
2021/11/20 10:38:24;;;;;;;13.43;4.00;;;;;;;15.08;58.33;100301.80;1686506;84;27349;-67
2021/11/20 10:41:20;;;;;;;11.33;2.95;;;;;;;15.35;57.83;100298.20;1685823;85;25879;-68
2021/11/20 10:43:52;;;;;;;8.60;2.67;;;;;;;15.81;59.70;100302.16;1686276;85;25611;-68
2021/11/20 10:46:57;;;;;;;9.20;2.87;;;;;;;16.63;58.30;100299.58;1689729;83;25786;-68
2021/11/20 10:50:10;;;;;;;10.13;2.52;;;;;;;16.89;56.04;100299.69;1676985;83;25679;-68
2021/11/20 10:53:11;;;;;;;7.90;2.80;;;;;;;17.11;55.28;100298.28;1692200;82;29577;-69
2021/11/20 10:55:55;;;;;;;10.10;2.45;;;;;;;17.24;53.37;100281.23;1682399;83;25746;-69
2021/11/20 10:58:52;;;;;;;10.60;3.12;;;;;;;16.72;53.69;100289.31;1695299;83;25491;-69
2021/11/20 11:02:01;;;;;;;8.35;2.72;;;;;;;16.66;54.43;100294.80;1674361;83;28064;-68
2021/11/20 11:05:02;;;;;;;10.32;2.40;;;;;;;16.10;53.32;100301.06;1694329;82;25785;-68
2021/11/20 11:07:42;;;;;;;9.18;3.85;;;;;;;15.38;53.78;100307.06;1655495;83;28347;-68
2021/11/20 11:10:15;;;;;;;20.48;3.12;;;;;;;14.76;54.21;100308.90;1697666;83;25559;-68
2021/11/20 11:12:47;;;;;;;10.80;3.00;;;;;;;14.30;55.29;100310.21;1713240;82;25412;-68
2021/11/20 11:15:36;;;;;;;11.57;3.10;;;;;;;13.94;55.87;100304.79;1732943;81;26040;-68
2021/11/20 11:18:27;;;;;;;12.98;2.77;;;;;;;13.70;56.99;100302.72;1674914;84;26450;-67
2021/11/20 11:21:14;;;;;;;10.35;3.00;;;;;;;13.47;57.17;100298.70;1661974;84;27351;-67
2021/11/20 11:24:01;;;;;;;13.38;3.08;;;;;;;13.18;57.95;100303.77;1665098;84;25829;-68
2021/11/20 11:26:33;;;;;;;10.25;2.85;;;;;;;13.10;60.16;100303.81;1649088;85;25704;-67
2021/11/20 11:29:17;;;;;;;8.60;2.95;;;;;;;13.62;60.45;100296.77;1619348;88;26642;-67
2021/11/20 11:31:44;;;;;;;8.63;2.98;;;;;;;13.80;60.66;100307.77;1603282;88;25835;-67
2021/11/20 11:34:33;;;;;;;11.00;3.67;;;;;;;13.98;60.44;100303.02;1555689;90;27664;-67
2021/11/20 11:37:51;;;;;;;9.63;4.47;;;;;;;14.18;59.63;100297.89;1557818;91;32842;-68
2021/11/20 11:40:23;;;;;;;8.05;2.95;;;;;;;14.15;58.79;100299.37;1553129;92;25731;-68
2021/11/20 11:43:14;;;;;;;9.50;2.65;;;;;;;14.20;57.19;100303.81;1533406;92;26405;-67
2021/11/20 11:46:03;;;;;;;8.68;2.95;;;;;;;14.30;58.04;100308.03;1542458;91;25342;-67
2021/11/20 11:49:13;;;;;;;11.08;3.52;;;;;;;14.61;57.22;100291.84;1560971;91;27449;-68
2021/11/20 11:51:57;;;;;;;9.68;3.92;;;;;;;14.71;56.98;100315.92;1563821;90;25815;-67
2021/11/20 11:54:47;;;;;;;8.88;3.05;;;;;;;14.99;56.74;100302.48;1599624;87;25864;-66
2021/11/20 11:57:19;;;;;;;9.55;3.20;;;;;;;14.94;55.87;100314.97;1621354;87;25994;-68